Schley, Virginia
Current Conditions -  °F | °C
As of 7:15 PM on Thursday 27 Nov 2014 (Local Time) from KW75 Reporting Station
Clear Clear  
Wind Chill: 35°   Ceiling: Unl
Heat Index: 35°   Visibility: 10mi
Dew Point: 34°   Wind: 3mph
Humidity: 95%   Direction: 280°W
Pressure: 30.12"   Gusts: NA
Location:  37.39°N, 76.46°W
Report Text: KW75 280015Z AUTO 28003KT 10SM CLR 02/01 A3012 RMK AO1 T00170010
Loading
Personal Weather Stations






























Interactive Weather Map New forecast layout! Learn more

10-Day Weather Forecast

Advertisements
Track Severe Weather on mobile